Time;durP1;ratioP1;P1;durP2;ratioP2;P2;SDS_P1;SDS_P2;PMS_P1;PMS_P2;Temp;Humidity;BMP_temperature;BMP_pressure;BME280_temperature;BME280_humidity;BME280_pressure;Samples;Min_cycle;Max_cycle;Signal;HPM_P1;HPM_P2
2022/03/12 00:02:07;;;;;;;;;2.50;2.50;;;;;9.93;68.90;100543.84;5032460;28;45742;-62
2022/03/12 00:04:32;;;;;;;;;3.00;3.00;;;;;10.24;68.88;100586.22;5060473;28;45965;-62
2022/03/12 00:06:58;;;;;;;;;2.00;2.00;;;;;10.20;68.55;100584.97;5032163;28;45662;-61
2022/03/12 00:09:24;;;;;;;;;6.40;6.00;;;;;10.05;69.23;100560.50;5031134;28;45764;-62
2022/03/12 00:11:51;;;;;;;;;6.00;3.00;;;;;10.21;68.70;100594.88;5032248;28;46540;-61
2022/03/12 00:14:20;;;;;;;;;3.00;3.00;;;;;10.17;68.30;100601.84;5012809;28;45954;-59
2022/03/12 00:16:48;;;;;;;;;2.60;2.60;;;;;10.17;68.00;100601.84;5035395;28;45562;-59
2022/03/12 00:19:14;;;;;;;;;3.00;3.00;;;;;10.03;68.57;100601.84;5036595;28;45376;-58
2022/03/12 00:21:42;;;;;;;;;3.00;3.00;;;;;10.01;68.32;100600.38;5036088;28;45415;-59
2022/03/12 00:24:07;;;;;;;;;7.00;3.00;;;;;10.04;69.06;100594.47;5034776;28;45472;-59
2022/03/12 00:26:39;;;;;;;;;2.50;2.50;;;;;10.12;68.54;100605.22;5036361;28;45501;-57
2022/03/12 00:29:07;;;;;;;;;3.00;3.00;;;;;10.04;68.15;100589.81;5036489;28;45491;-61
2022/03/12 00:31:33;;;;;;;;;7.00;3.40;;;;;10.21;68.65;100618.69;5051628;28;46561;-60
2022/03/12 00:33:58;;;;;;;;;1.60;1.60;;;;;10.20;68.53;100615.13;5036348;28;45433;-60
2022/03/12 00:36:24;;;;;;;;;1.25;1.25;;;;;10.21;68.67;100616.81;5036432;28;45340;-60
2022/03/12 00:38:50;;;;;;;;;2.75;2.75;;;;;10.25;68.50;100618.06;5035134;28;45535;-60
2022/03/12 00:41:16;;;;;;;;;4.00;2.00;;;;;10.24;68.24;100615.56;5035593;28;45429;-60
2022/03/12 00:43:41;;;;;;;;;3.00;2.60;;;;;10.27;68.45;100621.44;5035983;28;45367;-61
2022/03/12 00:46:07;;;;;;;;;4.00;2.75;;;;;10.26;68.60;100621.66;5036273;28;45461;-60
2022/03/12 00:48:32;;;;;;;;;3.00;3.00;;;;;10.10;68.06;100599.09;5036522;28;45343;-60
2022/03/12 00:50:58;;;;;;;;;2.50;2.50;;;;;10.02;68.65;100582.84;5036194;28;46622;-61
2022/03/12 00:53:24;;;;;;;;;1.75;1.75;;;;;10.28;67.50;100616.78;5034856;28;45330;-60
2022/03/12 00:55:49;;;;;;;;;2.00;2.00;;;;;10.46;67.65;100649.09;5034516;28;45329;-60
2022/03/12 00:58:15;;;;;;;;;3.00;2.00;;;;;10.46;66.81;100651.81;5036474;28;45329;-60
2022/03/12 01:00:41;;;;;;;;;4.00;3.00;;;;;10.43;67.93;100644.91;5034647;28;45915;-60
2022/03/12 01:03:06;;;;;;;;;3.00;2.00;;;;;10.52;67.13;100655.63;5034909;28;45452;-60
2022/03/12 01:05:50;;;;;;;;;3.00;3.00;;;;;10.32;67.09;100631.78;5036128;28;45327;-60
2022/03/12 01:08:19;;;;;;;;;3.00;3.00;;;;;10.31;67.01;100643.81;5036419;28;45572;-60
2022/03/12 01:10:44;;;;;;;;;5.20;2.20;;;;;10.49;67.78;100667.88;5035645;28;46281;-60
2022/03/12 01:13:11;;;;;;;;;2.00;2.00;;;;;10.46;67.80;100661.97;5018486;28;45916;-59
2022/03/12 01:15:36;;;;;;;;;3.20;2.00;;;;;10.47;67.04;100661.78;5027283;28;45593;-60
2022/03/12 01:18:02;;;;;;;;;4.00;2.75;;;;;10.29;68.01;100641.28;5035048;28;45913;-60
2022/03/12 01:20:28;;;;;;;;;3.00;2.75;;;;;10.53;67.46;100673.78;5035546;28;45906;-60
2022/03/12 01:22:53;;;;;;;;;2.00;2.00;;;;;10.53;67.14;100680.13;5035945;28;45297;-60
2022/03/12 01:25:19;;;;;;;;;2.25;2.25;;;;;10.24;67.31;100638.31;5035874;28;45296;-60
2022/03/12 01:27:44;;;;;;;;;2.00;2.00;;;;;10.20;67.51;100628.84;5035906;28;45560;-60
2022/03/12 01:30:10;;;;;;;;;2.75;2.75;;;;;10.40;66.80;100658.13;5035601;28;46117;-60
2022/03/12 01:32:36;;;;;;;;;3.00;3.00;;;;;10.26;67.11;100643.59;5035622;28;45357;-60
2022/03/12 01:35:02;;;;;;;;;3.00;3.00;;;;;10.42;67.08;100672.50;5034602;28;45346;-60
2022/03/12 01:37:28;;;;;;;;;2.40;2.40;;;;;10.34;67.14;100668.06;5035996;28;45400;-60
2022/03/12 01:39:54;;;;;;;;;3.00;3.00;;;;;10.33;68.00;100679.25;5035306;28;45433;-60
2022/03/12 01:42:21;;;;;;;;;4.60;3.00;;;;;10.11;67.82;100638.31;5035404;28;45447;-58
2022/03/12 01:44:47;;;;;;;;;3.20;2.40;;;;;10.32;67.46;100672.94;5035293;28;45428;-60
2022/03/12 01:47:15;;;;;;;;;2.00;1.50;;;;;10.09;67.60;100649.50;5035988;28;45580;-60
2022/03/12 01:49:41;;;;;;;;;3.80;3.80;;;;;10.10;67.91;100667.66;5035468;28;45824;-62
2022/03/12 01:52:07;;;;;;;;;3.25;2.25;;;;;9.86;68.79;100623.34;5034309;28;45381;-59
2022/03/12 01:54:33;;;;;;;;;6.40;2.80;;;;;10.07;68.68;100676.31;5035187;28;45437;-60
2022/03/12 01:56:58;;;;;;;;;3.75;2.75;;;;;10.09;68.24;100676.94;5035328;28;45346;-59
2022/03/12 01:59:24;;;;;;;;;4.00;3.75;;;;;10.07;68.22;100686.41;5035365;28;45845;-59
2022/03/12 02:01:53;;;;;;;;;3.00;3.00;;;;;9.87;68.38;100666.16;5035023;28;45381;-59
2022/03/12 02:04:22;;;;;;;;;4.00;4.00;;;;;10.04;67.59;100698.69;5037053;28;45351;-58
2022/03/12 02:06:48;;;;;;;;;2.00;2.00;;;;;10.07;68.21;100698.25;5038808;28;45425;-60
2022/03/12 02:09:17;;;;;;;;;3.50;3.25;;;;;10.08;68.67;100705.41;5039046;28;46624;-59
2022/03/12 02:11:48;;;;;;;;;4.80;3.80;;;;;10.08;68.67;100715.56;5038738;28;45168;-58
2022/03/12 02:14:15;;;;;;;;;3.80;3.80;;;;;10.01;68.13;100708.16;5038034;28;45470;-59
2022/03/12 02:16:44;;;;;;;;;6.20;3.80;;;;;10.06;68.83;100713.00;5039402;28;45698;-59
2022/03/12 02:19:10;;;;;;;;;3.00;3.00;;;;;10.05;68.24;100716.81;5038289;28;46611;-59
2022/03/12 02:21:43;;;;;;;;;5.50;3.00;;;;;10.08;68.09;100716.38;5038408;28;45581;-59
2022/03/12 02:24:12;;;;;;;;;1.00;1.00;;;;;9.85;67.99;100684.72;5037452;28;45842;-59
2022/03/12 02:26:41;;;;;;;;;4.00;3.00;;;;;10.00;68.45;100703.75;5007967;28;45598;-59
2022/03/12 02:29:09;;;;;;;;;4.00;3.20;;;;;9.94;68.14;100693.59;5053447;28;46389;-59
2022/03/12 02:31:36;;;;;;;;;6.00;3.40;;;;;9.93;67.77;100683.66;5070000;28;45382;-59
2022/03/12 02:34:02;;;;;;;;;3.20;3.20;;;;;9.81;67.01;100672.47;5038666;28;45353;-59
2022/03/12 02:36:29;;;;;;;;;5.20;3.20;;;;;9.96;67.88;100707.06;5038411;28;45554;-57
2022/03/12 02:38:55;;;;;;;;;5.40;4.20;;;;;9.86;68.56;100688.28;5037961;28;46783;-59
2022/03/12 02:41:23;;;;;;;;;2.00;2.00;;;;;9.95;67.76;100714.47;5036649;28;45385;-58
2022/03/12 02:43:49;;;;;;;;;7.80;4.80;;;;;9.89;67.77;100699.69;5037956;28;45337;-59
2022/03/12 02:46:14;;;;;;;;;1.00;1.00;;;;;9.95;67.73;100702.66;5038137;28;45368;-58
2022/03/12 02:48:40;;;;;;;;;4.00;3.00;;;;;10.00;68.22;100709.22;5037970;28;45914;-58
2022/03/12 02:51:07;;;;;;;;;7.20;4.00;;;;;10.01;67.68;100712.78;5037895;28;45340;-59
2022/03/12 02:53:33;;;;;;;;;5.60;5.60;;;;;10.00;67.86;100708.38;5036719;28;45492;-58
2022/03/12 02:55:58;;;;;;;;;4.00;4.00;;;;;9.94;67.72;100701.81;5038132;28;45614;-58
2022/03/12 02:58:24;;;;;;;;;2.50;2.50;;;;;9.98;67.54;100714.03;5038225;28;45485;-59
2022/03/12 03:00:49;;;;;;;;;3.00;3.00;;;;;9.93;67.44;100707.50;5036859;28;45385;-58
2022/03/12 03:03:15;;;;;;;;;3.25;2.50;;;;;9.93;67.51;100708.34;5036806;28;45251;-60
2022/03/12 03:05:46;;;;;;;;;2.00;2.00;;;;;10.01;67.94;100715.53;5038346;28;45393;-59
2022/03/12 03:08:18;;;;;;;;;4.00;2.00;;;;;10.03;68.04;100717.00;5036523;28;46571;-60
2022/03/12 03:10:45;;;;;;;;;3.60;3.60;;;;;9.62;67.35;100653.03;5038049;28;45709;-59
2022/03/12 03:13:16;;;;;;;;;3.20;2.20;;;;;9.76;68.00;100692.31;5038386;28;45341;-59
2022/03/12 03:15:53;;;;;;;;;3.80;2.60;;;;;9.97;67.12;100722.50;5037371;28;45394;-58
2022/03/12 03:18:21;;;;;;;;;6.60;3.00;;;;;9.96;67.03;100727.13;5036275;28;46961;-58
2022/03/12 03:20:46;;;;;;;;;3.00;3.00;;;;;9.96;67.69;100724.38;5036222;28;45364;-58
2022/03/12 03:23:12;;;;;;;;;2.25;2.25;;;;;9.88;67.55;100710.88;5038087;28;45341;-57
2022/03/12 03:25:37;;;;;;;;;5.75;3.00;;;;;9.86;67.80;100721.19;5036803;28;45738;-59
2022/03/12 03:28:03;;;;;;;;;2.75;2.75;;;;;9.92;67.07;100725.84;5037740;28;46313;-60
2022/03/12 03:30:32;;;;;;;;;3.00;3.00;;;;;9.92;67.99;100723.09;5037403;28;45472;-59
2022/03/12 03:32:57;;;;;;;;;3.20;2.00;;;;;9.86;68.40;100730.28;5036353;28;45373;-57
2022/03/12 03:35:23;;;;;;;;;4.50;2.75;;;;;9.83;67.74;100722.44;5037907;28;45589;-59
2022/03/12 03:37:48;;;;;;;;;5.00;3.00;;;;;9.89;68.39;100735.31;5037589;28;45405;-59
2022/03/12 03:40:14;;;;;;;;;3.75;3.75;;;;;9.91;67.49;100732.38;5037399;28;45492;-59
2022/03/12 03:42:39;;;;;;;;;4.75;3.00;;;;;9.92;67.99;100734.06;5037394;28;45376;-59
2022/03/12 03:45:05;;;;;;;;;4.00;3.00;;;;;9.85;67.93;100734.06;5037690;28;45821;-59
2022/03/12 03:47:30;;;;;;;;;6.25;3.50;;;;;9.87;67.72;100736.63;5052512;28;45397;-57
2022/03/12 03:49:56;;;;;;;;;5.00;3.75;;;;;9.84;67.81;100731.53;5037427;28;45325;-60
2022/03/12 03:52:21;;;;;;;;;3.50;3.50;;;;;9.83;68.17;100738.06;5037274;28;45363;-59
2022/03/12 03:54:47;;;;;;;;;3.75;2.25;;;;;9.60;67.98;100715.44;5037453;28;45599;-58
2022/03/12 03:57:14;;;;;;;;;1.25;1.25;;;;;9.39;68.42;100679.97;5018626;28;46730;-57
2022/03/12 03:59:40;;;;;;;;;5.20;5.20;;;;;9.73;68.42;100753.00;5037113;28;45874;-59
2022/03/12 04:02:05;;;;;;;;;4.50;3.25;;;;;9.70;67.72;100747.94;5036068;28;45400;-57
2022/03/12 04:04:33;;;;;;;;;5.00;2.75;;;;;9.62;68.21;100740.75;5052708;28;45610;-59
2022/03/12 04:06:59;;;;;;;;;2.00;1.20;;;;;9.39;67.92;100708.19;5036716;28;46084;-60
2022/03/12 04:09:25;;;;;;;;;3.20;3.00;;;;;9.57;67.84;100739.69;5037116;28;45380;-59
2022/03/12 04:11:50;;;;;;;;;1.80;1.80;;;;;9.55;67.64;100742.63;5028550;28;45380;-60
2022/03/12 04:14:16;;;;;;;;;2.00;2.00;;;;;9.58;68.57;100744.97;5024120;28;45400;-60
2022/03/12 04:16:44;;;;;;;;;2.00;2.00;;;;;9.40;68.34;100720.84;5033859;28;45422;-59
2022/03/12 04:19:10;;;;;;;;;3.60;2.80;;;;;9.30;68.15;100704.81;5035212;28;45290;-60
2022/03/12 04:21:36;;;;;;;;;6.20;6.20;;;;;9.56;68.07;100746.22;5034030;28;45529;-60
2022/03/12 04:24:01;;;;;;;;;2.50;1.00;;;;;9.42;67.63;100723.38;5036693;28;45627;-60
2022/03/12 04:26:28;;;;;;;;;6.00;4.00;;;;;9.12;67.11;100688.09;5035046;28;46172;-60
2022/03/12 04:28:53;;;;;;;;;3.20;2.20;;;;;9.45;68.49;100745.75;5051800;28;45363;-60
2022/03/12 04:31:19;;;;;;;;;3.75;2.00;;;;;9.33;67.57;100747.38;5036426;28;45335;-58
2022/03/12 04:33:45;;;;;;;;;2.50;2.50;;;;;9.36;68.02;100756.03;5036807;28;45804;-60
2022/03/12 04:36:12;;;;;;;;;5.60;4.00;;;;;9.39;68.21;100756.69;5036211;28;45929;-60
2022/03/12 04:38:38;;;;;;;;;2.40;2.00;;;;;9.37;67.48;100745.91;5051962;28;45459;-58
2022/03/12 04:41:05;;;;;;;;;4.20;2.80;;;;;9.38;67.22;100752.25;5036324;28;45395;-59
2022/03/12 04:43:30;;;;;;;;;3.00;3.00;;;;;9.36;68.18;100750.53;5036325;28;45586;-58
2022/03/12 04:45:58;;;;;;;;;2.50;1.50;;;;;9.41;68.01;100755.44;5068432;28;46684;-60
2022/03/12 04:48:23;;;;;;;;;1.40;1.40;;;;;9.44;68.06;100762.41;5036238;27;45361;-60
2022/03/12 04:50:50;;;;;;;;;9.50;2.75;;;;;9.42;67.53;100757.13;5034890;28;45299;-59
2022/03/12 04:53:16;;;;;;;;;2.60;1.60;;;;;9.44;67.88;100773.38;5034714;28;45394;-59
2022/03/12 04:55:41;;;;;;;;;3.75;3.00;;;;;9.45;67.96;100764.09;5035724;28;45392;-59
2022/03/12 04:58:07;;;;;;;;;1.75;1.75;;;;;9.41;67.78;100760.06;5036229;28;45431;-58
2022/03/12 05:00:36;;;;;;;;;3.00;2.00;;;;;9.37;67.89;100776.06;5036473;28;45306;-59
2022/03/12 05:03:08;;;;;;;;;2.40;2.40;;;;;9.14;67.38;100735.28;5034648;28;45388;-59
2022/03/12 05:05:40;;;;;;;;;3.00;2.00;;;;;9.36;67.07;100772.44;5067222;28;46711;-59
2022/03/12 05:08:07;;;;;;;;;4.80;2.60;;;;;9.38;67.94;100788.69;5035519;28;45335;-59
2022/03/12 05:10:33;;;;;;;;;2.00;2.00;;;;;9.47;67.75;100789.38;5035929;28;45324;-59
2022/03/12 05:13:00;;;;;;;;;3.00;3.00;;;;;9.34;67.48;100774.56;5036303;28;45318;-59
2022/03/12 05:15:32;;;;;;;;;5.60;2.40;;;;;9.45;67.44;100786.00;5035801;28;46386;-59
2022/03/12 05:17:58;;;;;;;;;3.60;2.00;;;;;9.44;67.33;100787.06;5035634;28;45365;-59
2022/03/12 05:20:24;;;;;;;;;2.50;1.50;;;;;9.45;67.29;100788.75;5034733;28;45479;-59
2022/03/12 05:22:50;;;;;;;;;2.80;2.80;;;;;9.48;67.47;100788.31;5035624;28;45967;-58
2022/03/12 05:25:18;;;;;;;;;3.25;2.00;;;;;9.42;66.81;100783.66;5035440;28;45424;-58
2022/03/12 05:27:48;;;;;;;;;3.80;2.00;;;;;9.25;66.57;100756.63;5067488;28;45450;-59
2022/03/12 05:30:14;;;;;;;;;6.00;2.20;;;;;9.42;67.59;100795.47;5035495;28;45353;-59
2022/03/12 05:32:39;;;;;;;;;3.00;1.75;;;;;9.36;67.18;100796.28;5035757;28;45580;-59
2022/03/12 05:35:06;;;;;;;;;2.00;2.00;;;;;9.41;67.21;100798.41;5067867;28;46249;-59
2022/03/12 05:37:32;;;;;;;;;4.00;3.00;;;;;9.48;67.38;100789.19;5033966;28;45313;-59
2022/03/12 05:39:57;;;;;;;;;4.00;1.00;;;;;9.45;66.93;100795.06;5035356;28;45352;-58
2022/03/12 05:42:23;;;;;;;;;1.50;1.50;;;;;9.51;67.36;100798.03;5035631;28;45424;-60
2022/03/12 05:44:51;;;;;;;;;4.00;3.00;;;;;9.11;67.12;100728.31;5033876;28;46934;-58
2022/03/12 05:47:17;;;;;;;;;4.20;2.80;;;;;9.55;66.92;100800.16;5035043;28;45338;-59
2022/03/12 05:49:43;;;;;;;;;3.60;2.60;;;;;9.53;67.33;100794.03;5035640;28;45408;-59
2022/03/12 05:52:10;;;;;;;;;2.50;2.50;;;;;9.49;66.68;100804.56;5035390;28;45537;-57
2022/03/12 05:54:36;;;;;;;;;3.00;3.00;;;;;9.46;66.94;100809.59;5035007;28;45833;-58
2022/03/12 05:57:02;;;;;;;;;2.40;2.40;;;;;9.43;67.77;100808.13;5035382;28;45380;-57
2022/03/12 05:59:28;;;;;;;;;6.00;3.00;;;;;9.44;66.25;100811.72;5034430;28;45431;-59
2022/03/12 06:01:54;;;;;;;;;5.60;2.00;;;;;9.43;67.02;100804.50;5035226;28;45422;-58
2022/03/12 06:04:23;;;;;;;;;6.50;3.00;;;;;9.38;66.53;100805.13;5035227;28;45297;-59
2022/03/12 06:06:49;;;;;;;;;3.60;2.40;;;;;9.35;66.81;100808.28;5035147;28;45459;-57
2022/03/12 06:09:14;;;;;;;;;5.25;2.00;;;;;9.31;67.14;100810.59;5035363;28;45353;-58
2022/03/12 06:11:42;;;;;;;;;3.00;2.00;;;;;9.28;67.01;100816.44;5035454;28;45270;-58
2022/03/12 06:14:08;;;;;;;;;3.00;2.00;;;;;9.23;66.85;100818.94;5034810;28;46567;-58
2022/03/12 06:16:35;;;;;;;;;2.80;2.20;;;;;9.19;66.87;100825.91;5034604;28;45480;-56
2022/03/12 06:19:00;;;;;;;;;2.00;2.00;;;;;9.17;66.97;100825.22;5034895;28;45364;-60
2022/03/12 06:21:27;;;;;;;;;6.00;2.25;;;;;9.15;66.88;100827.31;5033770;28;45595;-59
2022/03/12 06:23:54;;;;;;;;;4.00;2.40;;;;;9.15;67.53;100828.19;5033310;28;47262;-58
2022/03/12 06:26:25;;;;;;;;;3.20;3.20;;;;;9.12;67.42;100828.56;5034955;28;45452;-57
2022/03/12 06:28:50;;;;;;;;;2.40;2.40;;;;;9.17;67.47;100841.66;5034962;28;45325;-57
2022/03/12 06:31:16;;;;;;;;;3.00;3.00;;;;;9.16;68.13;100850.91;5035006;28;45438;-59
2022/03/12 06:33:42;;;;;;;;;3.50;3.50;;;;;9.19;67.30;100848.63;5034574;28;46751;-59
2022/03/12 06:36:09;;;;;;;;;4.25;3.00;;;;;9.21;66.99;100842.97;5025361;28;45345;-58
2022/03/12 06:38:35;;;;;;;;;5.80;5.40;;;;;9.16;67.42;100843.56;5027114;28;45488;-59
2022/03/12 06:41:01;;;;;;;;;3.80;2.00;;;;;9.00;67.62;100830.16;5031837;28;45428;-59
2022/03/12 06:43:28;;;;;;;;;2.25;2.00;;;;;8.82;67.72;100817.84;5030038;28;45481;-58
2022/03/12 06:45:54;;;;;;;;;3.20;3.00;;;;;8.94;67.63;100853.72;5033191;28;45900;-57
2022/03/12 06:48:20;;;;;;;;;3.60;1.60;;;;;8.87;67.49;100855.56;5048477;28;45393;-59
2022/03/12 06:50:46;;;;;;;;;7.40;6.40;;;;;8.55;68.30;100814.88;5033837;28;45498;-59
2022/03/12 06:53:12;;;;;;;;;3.00;3.00;;;;;8.71;68.11;100852.06;5036750;28;46140;-58
2022/03/12 06:55:37;;;;;;;;;3.80;3.80;;;;;8.89;67.71;100875.34;5036550;28;45527;-59
2022/03/12 06:58:03;;;;;;;;;5.50;5.50;;;;;8.91;68.00;100878.75;5070654;28;45402;-58
2022/03/12 07:00:30;;;;;;;;;3.75;3.25;;;;;8.95;67.81;100891.00;5036856;28;45839;-58
2022/03/12 07:02:56;;;;;;;;;3.40;3.40;;;;;9.03;67.70;100898.22;5037275;28;46870;-60
2022/03/12 07:05:22;;;;;;;;;5.60;5.60;;;;;9.05;67.41;100898.88;5037452;28;45341;-59
2022/03/12 07:07:49;;;;;;;;;3.00;3.00;;;;;9.09;67.51;100900.19;5037640;28;45313;-60
2022/03/12 07:10:14;;;;;;;;;2.40;2.40;;;;;8.88;67.12;100877.25;5035294;28;45574;-58
2022/03/12 07:12:43;;;;;;;;;7.00;4.25;;;;;9.03;67.04;100896.31;5036719;28;45866;-57
2022/03/12 07:15:09;;;;;;;;;5.60;3.00;;;;;9.06;66.97;100909.63;5068868;28;45685;-60
2022/03/12 07:17:34;;;;;;;;;2.00;2.00;;;;;9.04;67.77;100908.13;5036744;28;45415;-60
2022/03/12 07:20:00;;;;;;;;;8.00;8.00;;;;;9.10;67.40;100918.28;5037904;28;45348;-60
2022/03/12 07:22:25;;;;;;;;;1.75;1.75;;;;;8.85;67.35;100853.00;5037319;28;46595;-60
2022/03/12 07:24:51;;;;;;;;;2.75;2.75;;;;;9.13;67.31;100897.88;5037663;28;45448;-58
2022/03/12 07:27:17;;;;;;;;;5.00;3.25;;;;;9.19;67.29;100913.53;5037233;28;45568;-60
2022/03/12 07:29:42;;;;;;;;;3.00;3.00;;;;;9.17;66.90;100910.13;5037736;28;45432;-59
2022/03/12 07:32:08;;;;;;;;;2.50;2.50;;;;;9.14;67.34;100919.59;5036967;28;46261;-57
2022/03/12 07:34:33;;;;;;;;;6.00;4.50;;;;;9.09;67.91;100917.44;5037117;28;45427;-58
2022/03/12 07:36:59;;;;;;;;;3.00;3.00;;;;;9.10;67.19;100912.81;4958216;27;45330;-61
2022/03/12 07:39:25;;;;;;;;;7.75;7.00;;;;;9.01;67.19;100892.13;5031569;28;45436;-59
2022/03/12 07:41:50;;;;;;;;;6.75;6.00;;;;;9.20;67.14;100917.94;5016061;28;46535;-57
2022/03/12 07:44:16;;;;;;;;;3.00;3.00;;;;;9.17;67.17;100915.59;5035440;28;45724;-55
2022/03/12 07:46:41;;;;;;;;;3.25;3.00;;;;;9.19;67.03;100925.31;5037292;28;45345;-56
2022/03/12 07:49:07;;;;;;;;;4.50;3.00;;;;;9.24;66.66;100923.88;5036958;28;45606;-58
2022/03/12 07:51:32;;;;;;;;;3.00;3.00;;;;;9.29;66.19;100919.50;5033777;28;45968;-52
2022/03/12 07:54:00;;;;;;;;;4.00;4.00;;;;;9.34;66.90;100925.22;5036361;28;45303;-57
2022/03/12 07:56:26;;;;;;;;;3.80;3.80;;;;;9.33;66.89;100912.56;5035459;28;45401;-53
2022/03/12 07:58:51;;;;;;;;;4.00;4.00;;;;;9.11;66.35;100873.44;5036766;28;45549;-54
2022/03/12 08:01:17;;;;;;;;;8.00;6.00;;;;;9.41;66.52;100929.91;5052293;28;45374;-52
2022/03/12 08:03:43;;;;;;;;;4.50;3.50;;;;;9.37;66.58;100945.91;5036662;28;45460;-54
2022/03/12 08:06:09;;;;;;;;;4.00;4.00;;;;;9.40;66.82;100947.38;5036980;28;45518;-53
2022/03/12 08:08:35;;;;;;;;;4.80;4.40;;;;;9.21;66.09;100922.38;5036343;28;45475;-55
2022/03/12 08:13:45;;;;;;;;;4.80;4.80;;;;;9.37;67.33;100965.06;5036832;28;45513;-55
2022/03/12 08:16:14;;;;;;;;;4.00;3.75;;;;;9.40;67.44;100966.56;5037239;28;45386;-56
2022/03/12 08:18:41;;;;;;;;;3.20;3.20;;;;;9.39;66.75;100964.88;5037079;28;45451;-54
2022/03/12 08:21:06;;;;;;;;;2.20;2.20;;;;;9.29;66.81;100962.47;5052051;28;46044;-55
2022/03/12 08:23:33;;;;;;;;;3.00;3.00;;;;;9.39;66.94;100973.94;5069078;28;45410;-54
2022/03/12 08:26:00;;;;;;;;;5.60;3.20;;;;;9.35;67.21;100981.69;5036964;28;45392;-56
2022/03/12 08:28:26;;;;;;;;;6.00;5.00;;;;;9.34;67.93;100985.47;5035625;28;45677;-56
2022/03/12 08:30:51;;;;;;;;;1.80;1.80;;;;;9.33;67.43;100981.06;5051989;28;45975;-55
2022/03/12 08:33:19;;;;;;;;;3.00;3.00;;;;;9.41;67.83;100991.03;5036573;28;45367;-57
2022/03/12 08:35:44;;;;;;;;;3.40;3.40;;;;;9.49;66.58;100990.03;5036751;28;45468;-55
2022/03/12 08:38:10;;;;;;;;;4.50;3.00;;;;;9.56;66.71;100993.66;5036943;28;45565;-52
2022/03/12 08:40:36;;;;;;;;;0.00;0.00;;;;;9.52;66.75;100991.53;5036679;28;46701;-54
2022/03/12 08:43:01;;;;;;;;;4.00;2.00;;;;;9.51;66.30;100993.44;5036274;28;45375;-53
2022/03/12 08:45:27;;;;;;;;;3.00;3.00;;;;;9.55;66.82;100989.22;5036371;28;45443;-57
2022/03/12 08:47:52;;;;;;;;;3.00;3.00;;;;;9.63;66.31;100988.25;5015490;27;46219;-63
2022/03/12 08:50:19;;;;;;;;;3.50;2.50;;;;;9.69;65.98;100990.19;4999478;28;46159;-60
2022/03/12 08:52:45;;;;;;;;;4.80;3.00;;;;;9.76;66.53;100982.00;5030595;28;45757;-61
2022/03/12 08:55:11;;;;;;;;;6.00;6.00;;;;;9.71;65.81;100977.13;5031821;28;45485;-60
2022/03/12 08:57:37;;;;;;;;;3.00;3.00;;;;;9.82;66.20;100983.94;5030410;28;45365;-61
2022/03/12 09:00:05;;;;;;;;;6.50;3.25;;;;;9.65;66.52;100960.66;5031570;28;45968;-61
2022/03/12 09:02:32;;;;;;;;;6.60;5.20;;;;;9.72;66.22;100956.06;5031087;28;45472;-62
2022/03/12 09:04:58;;;;;;;;;3.60;3.60;;;;;9.84;66.53;100981.84;5029204;28;45505;-60
2022/03/12 09:07:24;;;;;;;;;5.50;3.75;;;;;9.89;66.01;100984.00;5031799;28;45522;-59
2022/03/12 09:09:50;;;;;;;;;2.25;2.25;;;;;9.93;66.25;100981.69;5030238;28;45592;-59
2022/03/12 09:12:15;;;;;;;;;3.40;3.40;;;;;9.83;65.78;100951.91;5003707;28;45871;-61
2022/03/12 09:14:41;;;;;;;;;3.50;3.50;;;;;10.00;66.06;100980.69;5031049;28;45408;-61
2022/03/12 09:17:06;;;;;;;;;3.50;3.50;;;;;9.89;66.69;100954.66;5030681;28;45758;-60
2022/03/12 09:19:32;;;;;;;;;3.25;3.25;;;;;10.06;66.32;100984.50;5047047;28;45795;-58
2022/03/12 09:21:58;;;;;;;;;5.00;3.75;;;;;9.86;65.92;100944.09;5029603;28;45464;-60
2022/03/12 09:24:24;;;;;;;;;6.00;4.00;;;;;10.01;66.11;100974.16;5031444;28;45561;-61
2022/03/12 09:26:50;;;;;;;;;1.40;1.40;;;;;10.02;66.80;100974.97;5031931;28;45826;-61
2022/03/12 09:29:15;;;;;;;;;4.00;4.00;;;;;10.01;66.51;100979.63;5012058;28;45709;-61
2022/03/12 09:31:41;;;;;;;;;2.75;2.75;;;;;10.08;67.06;100985.13;5029792;28;45564;-61
2022/03/12 09:34:07;;;;;;;;;5.50;5.50;;;;;10.07;66.54;100986.19;5030966;28;45413;-61
2022/03/12 09:36:33;;;;;;;;;5.60;4.40;;;;;10.08;66.94;100976.09;5031554;28;45628;-61
2022/03/12 09:38:59;;;;;;;;;5.00;5.00;;;;;9.96;67.13;100943.75;5031272;28;46640;-61
2022/03/12 09:41:25;;;;;;;;;2.40;2.40;;;;;10.26;67.32;100981.03;5028201;28;45429;-62
2022/03/12 09:43:51;;;;;;;;;7.75;5.00;;;;;10.12;67.31;100959.00;5029697;28;45774;-62
2022/03/12 09:46:17;;;;;;;;;3.20;3.20;;;;;10.34;66.41;100977.25;5063242;28;45403;-62
2022/03/12 09:48:43;;;;;;;;;3.75;3.00;;;;;10.36;66.77;100975.97;5023954;28;45990;-60
2022/03/12 09:51:08;;;;;;;;;5.50;4.00;;;;;10.37;67.09;100971.34;5051134;28;45682;-62
2022/03/12 09:53:34;;;;;;;;;2.75;2.75;;;;;10.41;65.78;100975.38;5046813;28;45859;-61
2022/03/12 09:56:00;;;;;;;;;8.50;6.25;;;;;10.30;66.29;100947.47;5050937;28;45669;-60
2022/03/12 09:58:25;;;;;;;;;8.75;4.50;;;;;10.58;66.97;100973.97;5049376;28;47052;-61
2022/03/12 10:00:51;;;;;;;;;3.75;3.75;;;;;10.65;66.25;100978.66;5051253;28;45408;-59
2022/03/12 10:03:17;;;;;;;;;7.00;6.00;;;;;10.77;66.77;100982.47;5051236;28;45931;-61
2022/03/12 10:05:42;;;;;;;;;11.00;7.50;;;;;10.87;65.52;100982.09;5048751;28;45686;-62
2022/03/12 10:08:08;;;;;;;;;4.75;4.75;;;;;10.77;65.39;100944.03;5051020;28;46075;-61
2022/03/12 10:10:34;;;;;;;;;6.00;3.75;;;;;11.04;65.83;100976.22;5050967;28;45436;-61
2022/03/12 10:13:00;;;;;;;;;3.60;3.60;;;;;11.09;65.10;100974.53;5051107;28;45419;-61
2022/03/12 10:15:25;;;;;;;;;5.25;5.25;;;;;11.12;65.04;100976.81;5040533;28;45991;-61
2022/03/12 10:17:51;;;;;;;;;4.00;4.00;;;;;11.01;64.73;100950.00;5037754;28;46726;-60
2022/03/12 10:20:17;;;;;;;;;5.50;4.50;;;;;11.23;64.76;100969.03;5050820;28;45763;-55
2022/03/12 10:22:43;;;;;;;;;5.00;4.60;;;;;11.25;65.34;100954.03;5050714;28;45664;-60
2022/03/12 10:25:09;;;;;;;;;3.80;1.80;;;;;11.40;64.75;100969.44;5034560;28;45569;-63
2022/03/12 10:27:35;;;;;;;;;6.80;5.00;;;;;11.52;63.86;100955.91;5053004;28;46632;-61
2022/03/12 10:30:00;;;;;;;;;3.50;3.50;;;;;11.28;64.31;100913.44;5051930;28;45594;-63
2022/03/12 10:32:28;;;;;;;;;4.00;4.00;;;;;11.30;63.05;100923.16;5052490;28;45864;-62
2022/03/12 10:34:56;;;;;;;;;4.80;4.80;;;;;11.58;64.13;100970.72;5054503;28;45486;-63
2022/03/12 10:37:25;;;;;;;;;3.40;3.40;;;;;11.60;63.31;100963.94;5054058;28;46090;-62
2022/03/12 10:40:08;;;;;;;;;7.00;7.00;;;;;11.57;63.72;100950.63;5052627;28;45434;-67
2022/03/12 10:42:34;;;;;;;;;6.20;5.40;;;;;11.41;64.05;100943.66;5034128;28;46133;-66
2022/03/12 10:45:10;;;;;;;;;3.40;2.40;;;;;11.60;63.90;100966.69;5038082;28;45595;-64
2022/03/12 10:47:43;;;;;;;;;3.00;3.00;;;;;11.63;63.49;100963.50;5052808;28;45891;-64
2022/03/12 10:50:15;;;;;;;;;4.20;4.20;;;;;11.65;63.36;100963.31;5043672;27;45439;-68
2022/03/12 10:52:45;;;;;;;;;5.00;4.60;;;;;11.63;64.35;100966.25;5052657;28;45424;-63
2022/03/12 10:55:33;;;;;;;;;7.60;5.40;;;;;11.57;63.83;100949.78;5052808;28;45470;-64
2022/03/12 10:58:07;;;;;;;;;7.40;7.20;;;;;11.62;63.32;100947.22;5052483;28;46099;-66
2022/03/12 11:00:40;;;;;;;;;8.60;7.00;;;;;11.66;63.68;100959.50;5053759;28;45385;-65
2022/03/12 11:03:14;;;;;;;;;4.60;4.60;;;;;11.71;63.70;100953.34;5052047;28;45439;-64
2022/03/12 11:05:41;;;;;;;;;3.80;3.80;;;;;11.72;63.73;100955.03;5049599;28;45855;-66
2022/03/12 11:08:07;;;;;;;;;8.00;5.80;;;;;11.24;63.83;100866.31;5053798;28;47116;-63
2022/03/12 11:10:35;;;;;;;;;7.00;7.00;;;;;11.84;63.65;100947.81;5051871;28;45569;-63
2022/03/12 11:13:02;;;;;;;;;7.40;6.60;;;;;11.83;63.22;100935.13;5050833;28;45515;-63
2022/03/12 11:15:27;;;;;;;;;7.20;5.80;;;;;11.88;63.84;100931.72;5053963;28;45632;-63
2022/03/12 11:17:53;;;;;;;;;6.00;6.00;;;;;11.83;63.36;100934.28;5052006;28;45741;-64
2022/03/12 11:20:22;;;;;;;;;6.00;3.75;;;;;11.83;63.21;100937.88;5052151;28;45420;-63
2022/03/12 11:23:07;;;;;;;;;5.00;5.00;;;;;11.79;63.55;100926.47;5050629;28;45855;-62
2022/03/12 11:25:36;;;;;;;;;6.60;6.60;;;;;11.68;63.70;100909.78;5051165;28;45571;-65
2022/03/12 11:28:16;;;;;;;;;5.60;4.20;;;;;11.72;63.89;100922.03;5051781;28;45506;-64
2022/03/12 11:30:42;;;;;;;;;4.60;4.60;;;;;11.72;63.63;100922.88;5066073;27;45438;-64